sensor_id;sensor_type;location;lat;lon;timestamp;temperature;humidity
21787;DHT22;11055;50.870;4.316;2022-10-23T00:02:04;17.90;99.90
21787;DHT22;11055;50.870;4.316;2022-10-23T00:04:29;18.00;99.90
21787;DHT22;11055;50.870;4.316;2022-10-23T00:06:55;18.00;99.90
21787;DHT22;11055;50.870;4.316;2022-10-23T00:09:23;18.10;99.90
21787;DHT22;11055;50.870;4.316;2022-10-23T00:11:50;18.20;99.90
21787;DHT22;11055;50.870;4.316;2022-10-23T00:14:19;18.20;99.90
21787;DHT22;11055;50.870;4.316;2022-10-23T00:16:45;18.20;99.90
21787;DHT22;11055;50.870;4.316;2022-10-23T00:19:11;18.30;99.90
21787;DHT22;11055;50.870;4.316;2022-10-23T00:21:37;18.30;99.90
21787;DHT22;11055;50.870;4.316;2022-10-23T00:24:04;18.30;99.90
21787;DHT22;11055;50.870;4.316;2022-10-23T00:26:29;18.30;99.90
21787;DHT22;11055;50.870;4.316;2022-10-23T00:28:55;18.40;99.90
21787;DHT22;11055;50.870;4.316;2022-10-23T00:31:22;18.40;99.90
21787;DHT22;11055;50.870;4.316;2022-10-23T00:33:48;18.30;99.90
21787;DHT22;11055;50.870;4.316;2022-10-23T00:36:16;18.20;99.90
21787;DHT22;11055;50.870;4.316;2022-10-23T00:38:43;18.00;99.90
21787;DHT22;11055;50.870;4.316;2022-10-23T00:41:16;17.90;99.90
21787;DHT22;11055;50.870;4.316;2022-10-23T00:46:41;18.00;99.90
21787;DHT22;11055;50.870;4.316;2022-10-23T00:49:08;18.10;99.90
21787;DHT22;11055;50.870;4.316;2022-10-23T00:51:46;18.10;99.90
21787;DHT22;11055;50.870;4.316;2022-10-23T00:54:16;18.20;99.90
21787;DHT22;11055;50.870;4.316;2022-10-23T00:56:43;18.20;99.90
21787;DHT22;11055;50.870;4.316;2022-10-23T00:59:10;18.20;99.90
21787;DHT22;11055;50.870;4.316;2022-10-23T01:01:37;18.00;99.90
21787;DHT22;11055;50.870;4.316;2022-10-23T01:04:05;17.90;99.90
21787;DHT22;11055;50.870;4.316;2022-10-23T01:17:28;17.70;99.90
21787;DHT22;11055;50.870;4.316;2022-10-23T01:26:06;17.70;99.90
21787;DHT22;11055;50.870;4.316;2022-10-23T01:28:38;17.60;99.90
21787;DHT22;11055;50.870;4.316;2022-10-23T01:31:10;17.70;99.90
21787;DHT22;11055;50.870;4.316;2022-10-23T01:33:47;17.60;99.90
21787;DHT22;11055;50.870;4.316;2022-10-23T01:36:19;17.70;99.90
21787;DHT22;11055;50.870;4.316;2022-10-23T01:38:47;17.80;99.90
21787;DHT22;11055;50.870;4.316;2022-10-23T01:41:17;17.90;99.90
21787;DHT22;11055;50.870;4.316;2022-10-23T01:43:51;17.70;99.90
21787;DHT22;11055;50.870;4.316;2022-10-23T01:46:18;17.40;99.90
21787;DHT22;11055;50.870;4.316;2022-10-23T01:48:50;17.30;99.90
21787;DHT22;11055;50.870;4.316;2022-10-23T01:51:18;17.30;99.90
21787;DHT22;11055;50.870;4.316;2022-10-23T01:53:47;17.40;99.90
21787;DHT22;11055;50.870;4.316;2022-10-23T01:56:25;17.50;99.90
21787;DHT22;11055;50.870;4.316;2022-10-23T01:58:52;17.60;99.90
21787;DHT22;11055;50.870;4.316;2022-10-23T02:01:22;17.50;99.90
21787;DHT22;11055;50.870;4.316;2022-10-23T02:03:49;17.40;99.90
21787;DHT22;11055;50.870;4.316;2022-10-23T02:06:15;17.30;99.90
21787;DHT22;11055;50.870;4.316;2022-10-23T02:08:41;17.30;99.90
21787;DHT22;11055;50.870;4.316;2022-10-23T02:11:09;17.30;99.90
21787;DHT22;11055;50.870;4.316;2022-10-23T02:13:45;17.20;99.90
21787;DHT22;11055;50.870;4.316;2022-10-23T02:16:50;17.20;99.90
21787;DHT22;11055;50.870;4.316;2022-10-23T02:21:48;17.50;99.90
21787;DHT22;11055;50.870;4.316;2022-10-23T02:24:22;17.70;99.90
21787;DHT22;11055;50.870;4.316;2022-10-23T02:26:54;17.70;99.90
21787;DHT22;11055;50.870;4.316;2022-10-23T02:29:54;17.80;99.90
21787;DHT22;11055;50.870;4.316;2022-10-23T02:32:23;17.70;99.90
21787;DHT22;11055;50.870;4.316;2022-10-23T02:34:50;17.30;99.90
21787;DHT22;11055;50.870;4.316;2022-10-23T02:37:16;17.30;99.90
21787;DHT22;11055;50.870;4.316;2022-10-23T02:39:42;17.40;99.90
21787;DHT22;11055;50.870;4.316;2022-10-23T02:42:18;17.30;99.90
21787;DHT22;11055;50.870;4.316;2022-10-23T02:48:06;17.40;99.90
21787;DHT22;11055;50.870;4.316;2022-10-23T02:50:42;17.50;99.90
21787;DHT22;11055;50.870;4.316;2022-10-23T02:53:29;17.60;99.90
21787;DHT22;11055;50.870;4.316;2022-10-23T02:56:39;17.60;99.90
21787;DHT22;11055;50.870;4.316;2022-10-23T02:59:27;17.50;99.90
21787;DHT22;11055;50.870;4.316;2022-10-23T03:04:45;17.60;99.90
21787;DHT22;11055;50.870;4.316;2022-10-23T03:07:14;17.70;99.90
21787;DHT22;11055;50.870;4.316;2022-10-23T03:09:43;17.70;99.90
21787;DHT22;11055;50.870;4.316;2022-10-23T03:12:08;17.70;99.90
21787;DHT22;11055;50.870;4.316;2022-10-23T03:14:34;17.80;99.90
21787;DHT22;11055;50.870;4.316;2022-10-23T03:17:00;17.80;99.90
21787;DHT22;11055;50.870;4.316;2022-10-23T03:19:25;17.90;99.90
21787;DHT22;11055;50.870;4.316;2022-10-23T03:21:51;17.90;99.90
21787;DHT22;11055;50.870;4.316;2022-10-23T03:24:17;17.80;99.90
21787;DHT22;11055;50.870;4.316;2022-10-23T03:26:42;17.80;99.90
21787;DHT22;11055;50.870;4.316;2022-10-23T03:29:08;17.90;99.90
21787;DHT22;11055;50.870;4.316;2022-10-23T03:31:33;18.00;99.90
21787;DHT22;11055;50.870;4.316;2022-10-23T03:33:59;18.10;99.90
21787;DHT22;11055;50.870;4.316;2022-10-23T03:36:25;18.10;99.90
21787;DHT22;11055;50.870;4.316;2022-10-23T03:38:50;18.20;99.90
21787;DHT22;11055;50.870;4.316;2022-10-23T03:41:16;18.20;99.90
21787;DHT22;11055;50.870;4.316;2022-10-23T03:43:42;18.20;99.90
21787;DHT22;11055;50.870;4.316;2022-10-23T03:46:07;18.20;99.90
21787;DHT22;11055;50.870;4.316;2022-10-23T03:48:36;18.20;99.90
21787;DHT22;11055;50.870;4.316;2022-10-23T03:51:04;18.10;99.90
21787;DHT22;11055;50.870;4.316;2022-10-23T03:53:30;18.00;99.90
21787;DHT22;11055;50.870;4.316;2022-10-23T03:55:56;18.10;99.90
21787;DHT22;11055;50.870;4.316;2022-10-23T03:58:22;17.90;99.90
21787;DHT22;11055;50.870;4.316;2022-10-23T04:00:47;17.90;99.90
21787;DHT22;11055;50.870;4.316;2022-10-23T04:03:13;17.90;99.90
21787;DHT22;11055;50.870;4.316;2022-10-23T04:05:40;17.90;99.90
21787;DHT22;11055;50.870;4.316;2022-10-23T04:08:06;17.90;99.90
21787;DHT22;11055;50.870;4.316;2022-10-23T04:10:32;17.90;99.90
21787;DHT22;11055;50.870;4.316;2022-10-23T04:12:57;17.90;99.90
21787;DHT22;11055;50.870;4.316;2022-10-23T04:15:23;18.00;99.90
21787;DHT22;11055;50.870;4.316;2022-10-23T04:17:49;18.00;99.90
21787;DHT22;11055;50.870;4.316;2022-10-23T04:20:15;17.90;99.90
21787;DHT22;11055;50.870;4.316;2022-10-23T04:22:40;17.80;99.90
21787;DHT22;11055;50.870;4.316;2022-10-23T04:25:06;17.80;99.90
21787;DHT22;11055;50.870;4.316;2022-10-23T04:27:32;17.90;99.90
21787;DHT22;11055;50.870;4.316;2022-10-23T04:29:59;17.80;99.90
21787;DHT22;11055;50.870;4.316;2022-10-23T04:32:25;17.80;99.90
21787;DHT22;11055;50.870;4.316;2022-10-23T04:34:50;17.90;99.90
21787;DHT22;11055;50.870;4.316;2022-10-23T04:37:16;17.90;99.90
21787;DHT22;11055;50.870;4.316;2022-10-23T04:39:42;18.00;99.90
21787;DHT22;11055;50.870;4.316;2022-10-23T04:42:07;18.10;99.90
21787;DHT22;11055;50.870;4.316;2022-10-23T04:44:33;18.20;99.90
21787;DHT22;11055;50.870;4.316;2022-10-23T04:46:59;18.20;99.90
21787;DHT22;11055;50.870;4.316;2022-10-23T04:49:24;18.10;99.90
21787;DHT22;11055;50.870;4.316;2022-10-23T04:51:50;18.10;99.90
21787;DHT22;11055;50.870;4.316;2022-10-23T04:54:16;18.20;99.90
21787;DHT22;11055;50.870;4.316;2022-10-23T04:56:42;18.20;99.90
21787;DHT22;11055;50.870;4.316;2022-10-23T04:59:07;18.20;99.90
21787;DHT22;11055;50.870;4.316;2022-10-23T05:01:33;18.10;99.90
21787;DHT22;11055;50.870;4.316;2022-10-23T05:03:59;18.10;99.90
21787;DHT22;11055;50.870;4.316;2022-10-23T05:06:25;18.00;99.90
21787;DHT22;11055;50.870;4.316;2022-10-23T05:08:50;17.90;99.90
21787;DHT22;11055;50.870;4.316;2022-10-23T05:11:16;17.90;99.90
21787;DHT22;11055;50.870;4.316;2022-10-23T05:13:42;17.90;99.90
21787;DHT22;11055;50.870;4.316;2022-10-23T05:16:07;18.10;99.90
21787;DHT22;11055;50.870;4.316;2022-10-23T05:18:34;18.00;99.90
21787;DHT22;11055;50.870;4.316;2022-10-23T05:21:12;18.10;99.90
21787;DHT22;11055;50.870;4.316;2022-10-23T05:23:40;18.10;99.90
21787;DHT22;11055;50.870;4.316;2022-10-23T05:26:07;18.00;99.90
21787;DHT22;11055;50.870;4.316;2022-10-23T05:28:33;18.00;99.90
21787;DHT22;11055;50.870;4.316;2022-10-23T05:30:59;18.10;99.90
21787;DHT22;11055;50.870;4.316;2022-10-23T05:33:27;18.00;99.90
21787;DHT22;11055;50.870;4.316;2022-10-23T05:35:54;18.00;99.90
21787;DHT22;11055;50.870;4.316;2022-10-23T05:38:20;18.00;99.90
21787;DHT22;11055;50.870;4.316;2022-10-23T05:40:46;18.10;99.90
21787;DHT22;11055;50.870;4.316;2022-10-23T05:43:12;18.10;99.90
21787;DHT22;11055;50.870;4.316;2022-10-23T05:45:38;18.30;99.90
21787;DHT22;11055;50.870;4.316;2022-10-23T05:48:03;18.40;99.90
21787;DHT22;11055;50.870;4.316;2022-10-23T05:50:29;18.40;99.90
21787;DHT22;11055;50.870;4.316;2022-10-23T05:52:55;18.50;99.90
21787;DHT22;11055;50.870;4.316;2022-10-23T05:55:20;18.60;99.90
21787;DHT22;11055;50.870;4.316;2022-10-23T05:57:46;18.70;99.90
21787;DHT22;11055;50.870;4.316;2022-10-23T06:00:12;18.70;99.90
21787;DHT22;11055;50.870;4.316;2022-10-23T06:02:38;18.80;99.90
21787;DHT22;11055;50.870;4.316;2022-10-23T06:05:04;18.80;99.90
21787;DHT22;11055;50.870;4.316;2022-10-23T06:07:31;18.70;99.90
21787;DHT22;11055;50.870;4.316;2022-10-23T06:09:56;18.80;99.90
21787;DHT22;11055;50.870;4.316;2022-10-23T06:12:22;18.70;99.90
21787;DHT22;11055;50.870;4.316;2022-10-23T06:14:48;18.70;99.90
21787;DHT22;11055;50.870;4.316;2022-10-23T06:17:14;18.70;99.90
21787;DHT22;11055;50.870;4.316;2022-10-23T06:19:42;18.60;99.90
21787;DHT22;11055;50.870;4.316;2022-10-23T06:22:08;18.50;99.90
21787;DHT22;11055;50.870;4.316;2022-10-23T06:24:33;18.30;99.90
21787;DHT22;11055;50.870;4.316;2022-10-23T06:26:59;18.20;99.90
21787;DHT22;11055;50.870;4.316;2022-10-23T06:29:24;18.10;99.90
21787;DHT22;11055;50.870;4.316;2022-10-23T06:31:50;18.00;99.90
21787;DHT22;11055;50.870;4.316;2022-10-23T06:34:16;18.00;99.90
21787;DHT22;11055;50.870;4.316;2022-10-23T06:36:41;18.00;99.90
21787;DHT22;11055;50.870;4.316;2022-10-23T06:39:08;18.10;99.90
21787;DHT22;11055;50.870;4.316;2022-10-23T06:41:34;18.20;99.90
21787;DHT22;11055;50.870;4.316;2022-10-23T06:44:00;18.20;99.90
21787;DHT22;11055;50.870;4.316;2022-10-23T06:46:26;18.00;99.90
21787;DHT22;11055;50.870;4.316;2022-10-23T06:48:54;17.80;99.90
21787;DHT22;11055;50.870;4.316;2022-10-23T06:51:20;17.80;99.90
21787;DHT22;11055;50.870;4.316;2022-10-23T06:53:47;17.90;99.90
21787;DHT22;11055;50.870;4.316;2022-10-23T06:56:13;17.80;99.90
21787;DHT22;11055;50.870;4.316;2022-10-23T06:58:39;17.70;99.90
21787;DHT22;11055;50.870;4.316;2022-10-23T07:01:07;17.80;99.90
21787;DHT22;11055;50.870;4.316;2022-10-23T07:03:33;17.90;99.90
21787;DHT22;11055;50.870;4.316;2022-10-23T07:06:04;18.00;99.90
21787;DHT22;11055;50.870;4.316;2022-10-23T07:08:30;18.10;99.90
21787;DHT22;11055;50.870;4.316;2022-10-23T07:10:55;18.10;99.90
21787;DHT22;11055;50.870;4.316;2022-10-23T07:13:21;18.20;99.90
21787;DHT22;11055;50.870;4.316;2022-10-23T07:15:49;18.30;99.90
21787;DHT22;11055;50.870;4.316;2022-10-23T07:18:15;18.30;99.90
21787;DHT22;11055;50.870;4.316;2022-10-23T07:20:42;18.40;99.90
21787;DHT22;11055;50.870;4.316;2022-10-23T07:23:09;18.40;99.90
21787;DHT22;11055;50.870;4.316;2022-10-23T07:25:36;18.50;99.90
21787;DHT22;11055;50.870;4.316;2022-10-23T07:28:05;18.50;99.90
21787;DHT22;11055;50.870;4.316;2022-10-23T07:30:31;18.40;99.90
21787;DHT22;11055;50.870;4.316;2022-10-23T07:32:56;18.40;99.90
21787;DHT22;11055;50.870;4.316;2022-10-23T07:35:22;18.40;99.90
21787;DHT22;11055;50.870;4.316;2022-10-23T07:37:47;18.30;99.90
21787;DHT22;11055;50.870;4.316;2022-10-23T07:40:13;18.10;99.90
21787;DHT22;11055;50.870;4.316;2022-10-23T07:42:39;17.70;99.90
21787;DHT22;11055;50.870;4.316;2022-10-23T07:45:06;17.50;99.90
21787;DHT22;11055;50.870;4.316;2022-10-23T07:47:33;17.50;99.90
21787;DHT22;11055;50.870;4.316;2022-10-23T07:49:59;17.60;99.90
21787;DHT22;11055;50.870;4.316;2022-10-23T07:52:24;17.60;99.90
21787;DHT22;11055;50.870;4.316;2022-10-23T07:54:51;17.60;99.90
21787;DHT22;11055;50.870;4.316;2022-10-23T07:57:17;17.70;99.90
21787;DHT22;11055;50.870;4.316;2022-10-23T07:59:42;17.80;99.90
21787;DHT22;11055;50.870;4.316;2022-10-23T08:02:14;17.80;99.90
21787;DHT22;11055;50.870;4.316;2022-10-23T08:04:40;17.80;99.90
21787;DHT22;11055;50.870;4.316;2022-10-23T08:07:06;17.90;99.90
21787;DHT22;11055;50.870;4.316;2022-10-23T08:09:32;18.10;99.90
21787;DHT22;11055;50.870;4.316;2022-10-23T08:11:59;18.30;99.90
21787;DHT22;11055;50.870;4.316;2022-10-23T08:14:25;18.30;99.90
21787;DHT22;11055;50.870;4.316;2022-10-23T08:16:51;18.10;99.90
21787;DHT22;11055;50.870;4.316;2022-10-23T08:19:17;18.10;99.90
21787;DHT22;11055;50.870;4.316;2022-10-23T08:21:42;18.10;99.90
21787;DHT22;11055;50.870;4.316;2022-10-23T08:24:10;18.10;99.90
21787;DHT22;11055;50.870;4.316;2022-10-23T08:26:39;18.00;99.90
21787;DHT22;11055;50.870;4.316;2022-10-23T08:29:04;17.90;99.90
21787;DHT22;11055;50.870;4.316;2022-10-23T08:31:30;18.00;99.90
21787;DHT22;11055;50.870;4.316;2022-10-23T08:33:56;18.00;99.90
21787;DHT22;11055;50.870;4.316;2022-10-23T08:36:24;18.00;99.90
21787;DHT22;11055;50.870;4.316;2022-10-23T08:38:52;17.90;99.90
21787;DHT22;11055;50.870;4.316;2022-10-23T08:41:26;18.00;99.90
21787;DHT22;11055;50.870;4.316;2022-10-23T08:43:58;18.10;99.90
21787;DHT22;11055;50.870;4.316;2022-10-23T08:46:30;18.20;99.90
21787;DHT22;11055;50.870;4.316;2022-10-23T08:51:49;18.40;99.90
21787;DHT22;11055;50.870;4.316;2022-10-23T08:54:19;18.30;99.90
21787;DHT22;11055;50.870;4.316;2022-10-23T08:56:54;18.30;99.90
21787;DHT22;11055;50.870;4.316;2022-10-23T08:59:26;18.40;99.90
21787;DHT22;11055;50.870;4.316;2022-10-23T09:04:35;18.20;99.90
21787;DHT22;11055;50.870;4.316;2022-10-23T09:12:22;18.30;99.90
21787;DHT22;11055;50.870;4.316;2022-10-23T09:17:43;18.50;99.90
21787;DHT22;11055;50.870;4.316;2022-10-23T09:22:47;18.30;99.90
21787;DHT22;11055;50.870;4.316;2022-10-23T09:25:22;18.40;99.90
21787;DHT22;11055;50.870;4.316;2022-10-23T09:27:51;18.30;99.90
21787;DHT22;11055;50.870;4.316;2022-10-23T09:30:39;18.30;99.90
21787;DHT22;11055;50.870;4.316;2022-10-23T09:36:07;18.50;99.90
21787;DHT22;11055;50.870;4.316;2022-10-23T09:38:38;18.70;99.90
21787;DHT22;11055;50.870;4.316;2022-10-23T09:41:27;18.70;99.90
21787;DHT22;11055;50.870;4.316;2022-10-23T09:46:49;18.60;99.90
21787;DHT22;11055;50.870;4.316;2022-10-23T09:49:18;18.70;99.90
21787;DHT22;11055;50.870;4.316;2022-10-23T09:51:53;18.90;99.90
21787;DHT22;11055;50.870;4.316;2022-10-23T09:54:21;18.80;99.90
21787;DHT22;11055;50.870;4.316;2022-10-23T09:56:49;18.90;99.90
21787;DHT22;11055;50.870;4.316;2022-10-23T10:01:59;18.80;99.90
21787;DHT22;11055;50.870;4.316;2022-10-23T10:04:36;18.80;99.90
21787;DHT22;11055;50.870;4.316;2022-10-23T10:07:11;18.80;99.90
21787;DHT22;11055;50.870;4.316;2022-10-23T10:09:40;18.90;99.90
21787;DHT22;11055;50.870;4.316;2022-10-23T10:22:49;18.90;99.90
21787;DHT22;11055;50.870;4.316;2022-10-23T10:25:37;18.70;99.90
21787;DHT22;11055;50.870;4.316;2022-10-23T10:33:56;18.70;99.90
21787;DHT22;11055;50.870;4.316;2022-10-23T10:37:11;18.60;99.90
21787;DHT22;11055;50.870;4.316;2022-10-23T10:45:15;18.70;99.90
21787;DHT22;11055;50.870;4.316;2022-10-23T10:50:40;18.70;99.90
21787;DHT22;11055;50.870;4.316;2022-10-23T10:53:33;18.70;99.90
21787;DHT22;11055;50.870;4.316;2022-10-23T10:56:04;18.80;99.90
21787;DHT22;11055;50.870;4.316;2022-10-23T11:01:28;18.70;99.90
21787;DHT22;11055;50.870;4.316;2022-10-23T11:06:51;19.00;99.90
21787;DHT22;11055;50.870;4.316;2022-10-23T11:09:26;18.90;99.90
21787;DHT22;11055;50.870;4.316;2022-10-23T11:11:53;18.90;99.90
21787;DHT22;11055;50.870;4.316;2022-10-23T11:14:24;18.80;99.90
21787;DHT22;11055;50.870;4.316;2022-10-23T11:17:02;18.90;99.90
21787;DHT22;11055;50.870;4.316;2022-10-23T11:19:35;19.10;99.90
21787;DHT22;11055;50.870;4.316;2022-10-23T11:22:09;19.20;99.90
21787;DHT22;11055;50.870;4.316;2022-10-23T11:30:24;19.20;99.90
21787;DHT22;11055;50.870;4.316;2022-10-23T11:33:32;19.50;99.90
21787;DHT22;11055;50.870;4.316;2022-10-23T11:39:19;20.10;99.90
21787;DHT22;11055;50.870;4.316;2022-10-23T11:41:53;20.40;99.90
21787;DHT22;11055;50.870;4.316;2022-10-23T11:44:40;20.30;99.90
21787;DHT22;11055;50.870;4.316;2022-10-23T11:47:33;20.10;99.90
21787;DHT22;11055;50.870;4.316;2022-10-23T11:52:32;19.90;99.90
21787;DHT22;11055;50.870;4.316;2022-10-23T11:55:03;20.00;99.90
21787;DHT22;11055;50.870;4.316;2022-10-23T11:57:29;20.30;99.90
21787;DHT22;11055;50.870;4.316;2022-10-23T11:59:56;20.50;99.90
21787;DHT22;11055;50.870;4.316;2022-10-23T12:02:26;20.50;99.90
21787;DHT22;11055;50.870;4.316;2022-10-23T12:05:03;20.40;99.90
21787;DHT22;11055;50.870;4.316;2022-10-23T12:07:33;20.60;99.90
21787;DHT22;11055;50.870;4.316;2022-10-23T12:10:05;20.50;99.90
21787;DHT22;11055;50.870;4.316;2022-10-23T12:12:41;20.50;99.90
21787;DHT22;11055;50.870;4.316;2022-10-23T12:17:43;20.60;99.90
21787;DHT22;11055;50.870;4.316;2022-10-23T12:25:16;20.70;99.90
21787;DHT22;11055;50.870;4.316;2022-10-23T12:30:47;21.10;99.90
21787;DHT22;11055;50.870;4.316;2022-10-23T12:33:25;21.20;99.90
21787;DHT22;11055;50.870;4.316;2022-10-23T12:36:18;21.10;99.90
21787;DHT22;11055;50.870;4.316;2022-10-23T12:38:48;21.30;99.90
21787;DHT22;11055;50.870;4.316;2022-10-23T12:41:33;21.50;99.90
21787;DHT22;11055;50.870;4.316;2022-10-23T12:44:04;21.70;99.90
21787;DHT22;11055;50.870;4.316;2022-10-23T12:46:41;21.80;99.90
21787;DHT22;11055;50.870;4.316;2022-10-23T12:49:16;21.80;99.90
21787;DHT22;11055;50.870;4.316;2022-10-23T12:51:43;22.20;99.90
21787;DHT22;11055;50.870;4.316;2022-10-23T12:54:15;22.60;99.90
21787;DHT22;11055;50.870;4.316;2022-10-23T12:56:41;23.50;99.90
21787;DHT22;11055;50.870;4.316;2022-10-23T12:59:20;23.80;99.90
21787;DHT22;11055;50.870;4.316;2022-10-23T13:01:47;24.40;99.90
21787;DHT22;11055;50.870;4.316;2022-10-23T13:04:29;25.10;99.90
21787;DHT22;11055;50.870;4.316;2022-10-23T13:06:57;25.50;99.90
21787;DHT22;11055;50.870;4.316;2022-10-23T13:09:26;25.20;99.90
21787;DHT22;11055;50.870;4.316;2022-10-23T13:11:53;25.30;99.90
21787;DHT22;11055;50.870;4.316;2022-10-23T13:14:30;25.60;99.90
21787;DHT22;11055;50.870;4.316;2022-10-23T13:17:05;24.80;99.90
21787;DHT22;11055;50.870;4.316;2022-10-23T13:19:33;23.50;99.90
21787;DHT22;11055;50.870;4.316;2022-10-23T13:22:00;22.60;99.90
21787;DHT22;11055;50.870;4.316;2022-10-23T13:24:29;22.40;99.90
21787;DHT22;11055;50.870;4.316;2022-10-23T13:26:56;22.10;99.90
21787;DHT22;11055;50.870;4.316;2022-10-23T13:29:28;21.90;99.90
21787;DHT22;11055;50.870;4.316;2022-10-23T13:31:55;21.60;99.90
21787;DHT22;11055;50.870;4.316;2022-10-23T13:34:29;21.40;99.90
21787;DHT22;11055;50.870;4.316;2022-10-23T13:37:30;21.20;99.90
21787;DHT22;11055;50.870;4.316;2022-10-23T13:40:05;21.00;99.90
21787;DHT22;11055;50.870;4.316;2022-10-23T13:42:34;20.90;99.90
21787;DHT22;11055;50.870;4.316;2022-10-23T13:44:59;20.80;99.90
21787;DHT22;11055;50.870;4.316;2022-10-23T13:47:25;20.80;99.90
21787;DHT22;11055;50.870;4.316;2022-10-23T13:49:51;20.70;99.90
21787;DHT22;11055;50.870;4.316;2022-10-23T13:52:19;20.80;99.90
21787;DHT22;11055;50.870;4.316;2022-10-23T13:54:46;20.80;99.90
21787;DHT22;11055;50.870;4.316;2022-10-23T13:57:14;20.90;99.90
21787;DHT22;11055;50.870;4.316;2022-10-23T13:59:40;21.00;99.90
21787;DHT22;11055;50.870;4.316;2022-10-23T14:02:20;20.80;99.90
21787;DHT22;11055;50.870;4.316;2022-10-23T14:04:47;20.90;99.90
21787;DHT22;11055;50.870;4.316;2022-10-23T14:07:13;20.90;99.90
21787;DHT22;11055;50.870;4.316;2022-10-23T14:09:39;21.00;99.90
21787;DHT22;11055;50.870;4.316;2022-10-23T14:12:05;21.00;99.90
21787;DHT22;11055;50.870;4.316;2022-10-23T14:14:30;21.10;99.90
21787;DHT22;11055;50.870;4.316;2022-10-23T14:16:56;21.20;99.90
21787;DHT22;11055;50.870;4.316;2022-10-23T14:19:21;21.10;99.90
21787;DHT22;11055;50.870;4.316;2022-10-23T14:21:47;21.10;99.90
21787;DHT22;11055;50.870;4.316;2022-10-23T14:24:13;21.20;99.90
21787;DHT22;11055;50.870;4.316;2022-10-23T14:26:41;21.10;99.90
21787;DHT22;11055;50.870;4.316;2022-10-23T14:29:07;21.00;99.90
21787;DHT22;11055;50.870;4.316;2022-10-23T14:31:33;20.90;99.90
21787;DHT22;11055;50.870;4.316;2022-10-23T14:33:59;21.00;99.90
21787;DHT22;11055;50.870;4.316;2022-10-23T14:36:27;21.00;99.90
21787;DHT22;11055;50.870;4.316;2022-10-23T14:38:57;21.00;99.90
21787;DHT22;11055;50.870;4.316;2022-10-23T14:41:24;21.00;99.90
21787;DHT22;11055;50.870;4.316;2022-10-23T14:43:51;21.20;99.90
21787;DHT22;11055;50.870;4.316;2022-10-23T14:46:21;21.10;99.90
21787;DHT22;11055;50.870;4.316;2022-10-23T14:48:47;21.20;99.90
21787;DHT22;11055;50.870;4.316;2022-10-23T14:51:22;21.10;99.90
21787;DHT22;11055;50.870;4.316;2022-10-23T14:53:52;21.00;99.90
21787;DHT22;11055;50.870;4.316;2022-10-23T14:56:18;20.90;99.90
21787;DHT22;11055;50.870;4.316;2022-10-23T14:58:44;21.00;99.90
21787;DHT22;11055;50.870;4.316;2022-10-23T15:01:09;21.00;99.90
21787;DHT22;11055;50.870;4.316;2022-10-23T15:03:35;21.00;99.90
21787;DHT22;11055;50.870;4.316;2022-10-23T15:06:01;20.80;99.90
21787;DHT22;11055;50.870;4.316;2022-10-23T15:08:27;20.80;99.90
21787;DHT22;11055;50.870;4.316;2022-10-23T15:10:52;20.90;99.90
21787;DHT22;11055;50.870;4.316;2022-10-23T15:13:18;20.90;99.90
21787;DHT22;11055;50.870;4.316;2022-10-23T15:15:44;21.00;99.90
21787;DHT22;11055;50.870;4.316;2022-10-23T15:18:09;21.00;99.90
21787;DHT22;11055;50.870;4.316;2022-10-23T15:20:35;21.00;99.90
21787;DHT22;11055;50.870;4.316;2022-10-23T15:23:01;21.10;99.90
21787;DHT22;11055;50.870;4.316;2022-10-23T15:25:27;21.00;99.90
21787;DHT22;11055;50.870;4.316;2022-10-23T15:27:54;21.00;99.90
21787;DHT22;11055;50.870;4.316;2022-10-23T15:30:19;20.90;99.90
21787;DHT22;11055;50.870;4.316;2022-10-23T15:32:45;20.90;99.90
21787;DHT22;11055;50.870;4.316;2022-10-23T15:35:11;20.90;99.90
21787;DHT22;11055;50.870;4.316;2022-10-23T15:37:36;20.80;99.90
21787;DHT22;11055;50.870;4.316;2022-10-23T15:40:02;20.60;99.90
21787;DHT22;11055;50.870;4.316;2022-10-23T15:42:28;20.50;99.90
21787;DHT22;11055;50.870;4.316;2022-10-23T15:44:54;20.50;99.90
21787;DHT22;11055;50.870;4.316;2022-10-23T15:47:19;20.50;99.90
21787;DHT22;11055;50.870;4.316;2022-10-23T15:49:45;20.50;99.90
21787;DHT22;11055;50.870;4.316;2022-10-23T15:52:10;20.50;99.90
21787;DHT22;11055;50.870;4.316;2022-10-23T15:54:36;20.30;99.90
21787;DHT22;11055;50.870;4.316;2022-10-23T15:57:03;20.30;99.90
21787;DHT22;11055;50.870;4.316;2022-10-23T15:59:30;20.30;99.90
21787;DHT22;11055;50.870;4.316;2022-10-23T16:01:55;20.30;99.90
21787;DHT22;11055;50.870;4.316;2022-10-23T16:04:21;20.20;99.90
21787;DHT22;11055;50.870;4.316;2022-10-23T16:06:47;20.10;99.90
21787;DHT22;11055;50.870;4.316;2022-10-23T16:09:14;20.10;99.90
21787;DHT22;11055;50.870;4.316;2022-10-23T16:11:42;20.10;99.90
21787;DHT22;11055;50.870;4.316;2022-10-23T16:14:11;20.10;99.90
21787;DHT22;11055;50.870;4.316;2022-10-23T16:16:37;20.10;99.90
21787;DHT22;11055;50.870;4.316;2022-10-23T16:19:03;20.10;99.90
21787;DHT22;11055;50.870;4.316;2022-10-23T16:21:33;20.20;99.90
21787;DHT22;11055;50.870;4.316;2022-10-23T16:24:00;20.20;99.90
21787;DHT22;11055;50.870;4.316;2022-10-23T16:26:27;20.20;99.90
21787;DHT22;11055;50.870;4.316;2022-10-23T16:28:55;20.10;99.90
21787;DHT22;11055;50.870;4.316;2022-10-23T16:31:22;19.90;99.90
21787;DHT22;11055;50.870;4.316;2022-10-23T16:33:48;20.00;99.90
21787;DHT22;11055;50.870;4.316;2022-10-23T16:36:14;20.00;99.90
21787;DHT22;11055;50.870;4.316;2022-10-23T16:38:39;19.80;99.90
21787;DHT22;11055;50.870;4.316;2022-10-23T16:41:05;19.80;99.90
21787;DHT22;11055;50.870;4.316;2022-10-23T16:43:31;19.70;99.90
21787;DHT22;11055;50.870;4.316;2022-10-23T16:46:06;19.70;99.90
21787;DHT22;11055;50.870;4.316;2022-10-23T16:48:33;19.80;99.90
21787;DHT22;11055;50.870;4.316;2022-10-23T16:51:00;19.70;99.90
21787;DHT22;11055;50.870;4.316;2022-10-23T16:53:30;19.70;99.90
21787;DHT22;11055;50.870;4.316;2022-10-23T16:55:56;19.70;99.90
21787;DHT22;11055;50.870;4.316;2022-10-23T16:58:23;19.70;99.90
21787;DHT22;11055;50.870;4.316;2022-10-23T17:01:16;19.80;99.90
21787;DHT22;11055;50.870;4.316;2022-10-23T17:03:47;20.00;99.90
21787;DHT22;11055;50.870;4.316;2022-10-23T17:06:15;20.00;99.90
21787;DHT22;11055;50.870;4.316;2022-10-23T17:08:42;20.00;99.90
21787;DHT22;11055;50.870;4.316;2022-10-23T17:11:11;20.00;99.90
21787;DHT22;11055;50.870;4.316;2022-10-23T17:13:44;20.10;99.90
21787;DHT22;11055;50.870;4.316;2022-10-23T17:16:19;20.10;99.90
21787;DHT22;11055;50.870;4.316;2022-10-23T17:18:45;20.00;99.90
21787;DHT22;11055;50.870;4.316;2022-10-23T17:21:13;20.00;99.90
21787;DHT22;11055;50.870;4.316;2022-10-23T17:23:39;19.90;99.90
21787;DHT22;11055;50.870;4.316;2022-10-23T17:26:07;19.90;99.90
21787;DHT22;11055;50.870;4.316;2022-10-23T17:28:34;19.60;99.90